Terminal Aerodrome Forecast
Issued by NWS New Orleans/Baton Rouge, LA

Home | Current Version | Previous Version | Text Only | Print | Product List | Glossary On
Versions: 1 2 3 4 5 6 7 8 9 10
965
FTUS44 KLIX 062320
TAFBTR
TAF
KBTR 062320Z 0700/0724 01004KT P6SM BKN100
     FM070200 01004KT P6SM SCT110
     FM072100 26004KT P6SM FEW250=

USA.gov is the U.S. government's official web portal to all federal, state and local government web resources and services.